Deelen Air Base

EHDL · Gelderland, 荷兰

罗盘
风向 的 风向 的 风向 到 风向 220° Deelen Air Base 2/20
风: 12 kt, 4 beaufort

11 kt

5 kt
改变
0 ft 2.000 4.000 6.000 8.000 10.000
Cloud Cloud Cloud Cloud
SCT 5.100
Cloud Cloud Cloud Cloud Cloud Cloud Cloud Cloud
OVC 5.700
METAR EHDL 251255Z AUTO 22012KT 160V290 9999 SCT051 OVC057 08/01 Q1004 BLU

METAR Deelen Air Base - EHDL

Deelen Air Base是,荷兰中的中型机场。 该机场位于纬度52,05974和经度5,87194。 该机场有一条跑道: 2/20. 本场的ICAO机场代码为EHDL。 机场在Amsterdam FIR中。

该航空气象观测是针对Deelen Air Base在2024年4月25日 14:55, 当地时间进行的。

机场观察

风向为220°,速度为12 kt。 风向在160°和290°之间变化。

可见度为10 km 或者更多。

有疏云,零星散落的云朵在5.100 ft的高度 和 乌云密布在5.700 ft的高度。 破损或更高的上限为5.700 ft。

温度为8 °C,阵风为3 °C。 露点为1 °C,相对湿度为62%。 海平面上的气压为1004 hPa (QNH)。

白天

今天,太阳从06:17升起,在20:51降落。 这适用于Deelen Air Base,世界夏令时可能有所不同。 当地时间与世界标准时间之间的时差为+2 小时。 夏令时目前正在进行中。

公司介绍

在这个机场,你可以找到滑翔机飞行俱乐部。 这个机场上的公司有Zweefvliegclub Rotterdam (ZCR) 和 Zweefvliegclub Deelen (ZCD)。

体会

到Vliegles.nl去找飞行课程,跳伞和其他飞行体验。 浏览页面,了解Deelen Air Base附近所有可用的活动。 你也可以使用搜索功能来寻找你所在地附近的特定飞行课程、跳伞或其他飞行体验。

跑道

Id 标题 侧风 逆风 侧风 %
2/20 017°-197° 5 kt 11 kt 39 %

逆风成分最大的方向会被突出显示,并用于横风计算。 这并不一定意味着这个方向在使用。

乌云

5.100 ft SCT 疏云,零星散落的云朵
5.700 ft OVC 乌云密布

温度 & 天气

温度 8 °C
露点 1 °C
相对湿度 62%
风寒 3 °C
Kp-index 0 (0-9)

白天

日出
06:17
中午
13:34
日落
20:51 (5:31)

小工具

你想在你的网站上有一个关于Deelen Air Base的当前航空天气(METAR)的小部件吗?

显示HTML代码
报告变更